sensor_id;sensor_type;location;lat;lon;timestamp;P1;durP1;ratioP1;P2;durP2;ratioP2
10957;SDS011;5531;42.570;23.676;2023-07-20T00:00:58;7.70;;;3.42;;
10957;SDS011;5531;42.570;23.676;2023-07-20T00:03:27;7.45;;;3.58;;
10957;SDS011;5531;42.570;23.676;2023-07-20T00:05:56;6.80;;;3.60;;
10957;SDS011;5531;42.570;23.676;2023-07-20T00:08:25;6.80;;;3.42;;
10957;SDS011;5531;42.570;23.676;2023-07-20T00:10:57;5.70;;;3.80;;
10957;SDS011;5531;42.570;23.676;2023-07-20T00:13:26;5.90;;;3.75;;
10957;SDS011;5531;42.570;23.676;2023-07-20T00:15:55;6.60;;;3.60;;
10957;SDS011;5531;42.570;23.676;2023-07-20T00:18:24;6.70;;;3.45;;
10957;SDS011;5531;42.570;23.676;2023-07-20T00:20:53;6.70;;;3.20;;
10957;SDS011;5531;42.570;23.676;2023-07-20T00:23:22;11.77;;;3.70;;
10957;SDS011;5531;42.570;23.676;2023-07-20T00:25:51;5.72;;;3.33;;
10957;SDS011;5531;42.570;23.676;2023-07-20T00:28:23;6.38;;;3.08;;
10957;SDS011;5531;42.570;23.676;2023-07-20T00:30:52;6.35;;;3.20;;
10957;SDS011;5531;42.570;23.676;2023-07-20T00:33:21;7.40;;;3.53;;
10957;SDS011;5531;42.570;23.676;2023-07-20T00:35:50;6.50;;;3.35;;
10957;SDS011;5531;42.570;23.676;2023-07-20T00:38:19;6.82;;;3.30;;
10957;SDS011;5531;42.570;23.676;2023-07-20T00:40:48;8.70;;;3.60;;
10957;SDS011;5531;42.570;23.676;2023-07-20T00:43:17;8.43;;;3.28;;
10957;SDS011;5531;42.570;23.676;2023-07-20T00:45:49;9.05;;;3.13;;
10957;SDS011;5531;42.570;23.676;2023-07-20T00:48:18;7.60;;;3.17;;
10957;SDS011;5531;42.570;23.676;2023-07-20T00:50:48;9.02;;;3.40;;
10957;SDS011;5531;42.570;23.676;2023-07-20T00:53:17;9.32;;;3.80;;
10957;SDS011;5531;42.570;23.676;2023-07-20T00:55:46;7.97;;;3.28;;
10957;SDS011;5531;42.570;23.676;2023-07-20T00:58:15;5.03;;;3.35;;
10957;SDS011;5531;42.570;23.676;2023-07-20T01:00:45;7.10;;;3.35;;
10957;SDS011;5531;42.570;23.676;2023-07-20T01:03:16;5.82;;;3.30;;
10957;SDS011;5531;42.570;23.676;2023-07-20T01:05:47;4.82;;;3.30;;
10957;SDS011;5531;42.570;23.676;2023-07-20T01:08:24;8.55;;;3.22;;
10957;SDS011;5531;42.570;23.676;2023-07-20T01:11:01;6.30;;;3.50;;
10957;SDS011;5531;42.570;23.676;2023-07-20T01:13:38;7.32;;;3.65;;
10957;SDS011;5531;42.570;23.676;2023-07-20T01:16:08;8.32;;;3.53;;
10957;SDS011;5531;42.570;23.676;2023-07-20T01:18:40;6.55;;;3.22;;
10957;SDS011;5531;42.570;23.676;2023-07-20T01:21:09;4.78;;;3.00;;
10957;SDS011;5531;42.570;23.676;2023-07-20T01:23:53;7.10;;;3.60;;
10957;SDS011;5531;42.570;23.676;2023-07-20T01:26:43;7.00;;;3.60;;
10957;SDS011;5531;42.570;23.676;2023-07-20T01:29:48;4.85;;;3.47;;
10957;SDS011;5531;42.570;23.676;2023-07-20T01:32:32;6.72;;;3.58;;
10957;SDS011;5531;42.570;23.676;2023-07-20T01:35:03;8.00;;;3.53;;
10957;SDS011;5531;42.570;23.676;2023-07-20T01:37:35;8.35;;;3.45;;
10957;SDS011;5531;42.570;23.676;2023-07-20T01:40:07;6.05;;;3.42;;
10957;SDS011;5531;42.570;23.676;2023-07-20T01:42:37;5.43;;;3.65;;
10957;SDS011;5531;42.570;23.676;2023-07-20T01:45:07;5.88;;;3.60;;
10957;SDS011;5531;42.570;23.676;2023-07-20T01:47:39;8.48;;;3.50;;
10957;SDS011;5531;42.570;23.676;2023-07-20T01:50:09;10.07;;;3.85;;
10957;SDS011;5531;42.570;23.676;2023-07-20T01:52:38;8.40;;;3.40;;
10957;SDS011;5531;42.570;23.676;2023-07-20T01:55:08;6.80;;;3.50;;
10957;SDS011;5531;42.570;23.676;2023-07-20T01:57:37;5.65;;;3.60;;
10957;SDS011;5531;42.570;23.676;2023-07-20T02:00:07;5.38;;;3.40;;
10957;SDS011;5531;42.570;23.676;2023-07-20T02:02:41;7.15;;;4.10;;
10957;SDS011;5531;42.570;23.676;2023-07-20T02:05:10;7.60;;;4.10;;
10957;SDS011;5531;42.570;23.676;2023-07-20T02:07:39;5.43;;;3.50;;
10957;SDS011;5531;42.570;23.676;2023-07-20T02:10:08;5.68;;;3.15;;
10957;SDS011;5531;42.570;23.676;2023-07-20T02:12:38;6.68;;;3.20;;
10957;SDS011;5531;42.570;23.676;2023-07-20T02:15:07;5.68;;;3.78;;
10957;SDS011;5531;42.570;23.676;2023-07-20T02:17:41;6.65;;;3.67;;
10957;SDS011;5531;42.570;23.676;2023-07-20T02:20:10;7.00;;;3.78;;
10957;SDS011;5531;42.570;23.676;2023-07-20T02:22:39;7.45;;;3.97;;
10957;SDS011;5531;42.570;23.676;2023-07-20T02:25:09;6.57;;;4.00;;
10957;SDS011;5531;42.570;23.676;2023-07-20T02:27:38;7.60;;;3.90;;
10957;SDS011;5531;42.570;23.676;2023-07-20T02:30:07;5.13;;;4.00;;
10957;SDS011;5531;42.570;23.676;2023-07-20T02:32:37;6.93;;;4.03;;
10957;SDS011;5531;42.570;23.676;2023-07-20T02:35:11;4.80;;;3.67;;
10957;SDS011;5531;42.570;23.676;2023-07-20T02:37:40;9.13;;;3.72;;
10957;SDS011;5531;42.570;23.676;2023-07-20T02:40:09;5.90;;;3.88;;
10957;SDS011;5531;42.570;23.676;2023-07-20T02:42:39;4.28;;;3.58;;
10957;SDS011;5531;42.570;23.676;2023-07-20T02:45:08;7.00;;;3.55;;
10957;SDS011;5531;42.570;23.676;2023-07-20T02:47:40;7.22;;;3.47;;
10957;SDS011;5531;42.570;23.676;2023-07-20T02:50:10;5.40;;;3.47;;
10957;SDS011;5531;42.570;23.676;2023-07-20T02:52:39;7.55;;;3.63;;
10957;SDS011;5531;42.570;23.676;2023-07-20T02:55:08;6.45;;;3.38;;
10957;SDS011;5531;42.570;23.676;2023-07-20T02:57:38;8.10;;;3.60;;
10957;SDS011;5531;42.570;23.676;2023-07-20T03:00:07;7.03;;;3.65;;
10957;SDS011;5531;42.570;23.676;2023-07-20T03:02:37;8.38;;;3.97;;
10957;SDS011;5531;42.570;23.676;2023-07-20T03:05:09;8.25;;;3.95;;
10957;SDS011;5531;42.570;23.676;2023-07-20T03:07:38;5.80;;;3.78;;
10957;SDS011;5531;42.570;23.676;2023-07-20T03:10:09;7.88;;;4.40;;
10957;SDS011;5531;42.570;23.676;2023-07-20T03:12:38;9.63;;;4.28;;
10957;SDS011;5531;42.570;23.676;2023-07-20T03:15:08;6.68;;;4.05;;
10957;SDS011;5531;42.570;23.676;2023-07-20T03:17:38;7.90;;;4.10;;
10957;SDS011;5531;42.570;23.676;2023-07-20T03:20:10;9.88;;;4.20;;
10957;SDS011;5531;42.570;23.676;2023-07-20T03:22:39;7.60;;;4.10;;
10957;SDS011;5531;42.570;23.676;2023-07-20T03:25:09;9.32;;;3.78;;
10957;SDS011;5531;42.570;23.676;2023-07-20T03:27:38;8.52;;;3.80;;
10957;SDS011;5531;42.570;23.676;2023-07-20T03:30:07;6.30;;;3.83;;
10957;SDS011;5531;42.570;23.676;2023-07-20T03:32:37;6.72;;;4.07;;
10957;SDS011;5531;42.570;23.676;2023-07-20T03:35:06;5.63;;;4.00;;
10957;SDS011;5531;42.570;23.676;2023-07-20T03:37:38;6.03;;;3.90;;
10957;SDS011;5531;42.570;23.676;2023-07-20T03:40:09;5.93;;;3.65;;
10957;SDS011;5531;42.570;23.676;2023-07-20T03:42:39;8.55;;;3.65;;
10957;SDS011;5531;42.570;23.676;2023-07-20T03:45:09;5.47;;;3.40;;
10957;SDS011;5531;42.570;23.676;2023-07-20T03:47:38;7.05;;;3.90;;
10957;SDS011;5531;42.570;23.676;2023-07-20T03:50:12;7.03;;;3.50;;
10957;SDS011;5531;42.570;23.676;2023-07-20T03:52:41;5.82;;;3.60;;
10957;SDS011;5531;42.570;23.676;2023-07-20T03:55:10;7.47;;;3.65;;
10957;SDS011;5531;42.570;23.676;2023-07-20T03:57:39;6.18;;;3.67;;
10957;SDS011;5531;42.570;23.676;2023-07-20T04:00:09;5.80;;;3.25;;
10957;SDS011;5531;42.570;23.676;2023-07-20T04:02:40;7.50;;;3.70;;
10957;SDS011;5531;42.570;23.676;2023-07-20T04:05:09;5.47;;;3.55;;
10957;SDS011;5531;42.570;23.676;2023-07-20T04:07:41;6.53;;;3.58;;
10957;SDS011;5531;42.570;23.676;2023-07-20T04:10:10;9.38;;;3.80;;
10957;SDS011;5531;42.570;23.676;2023-07-20T04:12:40;6.85;;;3.35;;
10957;SDS011;5531;42.570;23.676;2023-07-20T04:15:09;5.38;;;3.45;;
10957;SDS011;5531;42.570;23.676;2023-07-20T04:17:38;6.25;;;3.25;;
10957;SDS011;5531;42.570;23.676;2023-07-20T04:20:08;6.88;;;3.47;;
10957;SDS011;5531;42.570;23.676;2023-07-20T04:22:40;7.47;;;3.35;;
10957;SDS011;5531;42.570;23.676;2023-07-20T04:25:09;7.35;;;3.40;;
10957;SDS011;5531;42.570;23.676;2023-07-20T04:27:38;6.80;;;3.30;;
10957;SDS011;5531;42.570;23.676;2023-07-20T04:30:08;6.93;;;3.47;;
10957;SDS011;5531;42.570;23.676;2023-07-20T04:32:38;6.20;;;3.65;;
10957;SDS011;5531;42.570;23.676;2023-07-20T04:35:17;6.05;;;3.47;;
10957;SDS011;5531;42.570;23.676;2023-07-20T04:38:08;6.20;;;3.40;;
10957;SDS011;5531;42.570;23.676;2023-07-20T04:40:38;8.20;;;3.17;;
10957;SDS011;5531;42.570;23.676;2023-07-20T04:43:07;7.28;;;3.25;;
10957;SDS011;5531;42.570;23.676;2023-07-20T04:45:36;6.95;;;3.45;;
10957;SDS011;5531;42.570;23.676;2023-07-20T04:48:06;7.13;;;3.50;;
10957;SDS011;5531;42.570;23.676;2023-07-20T04:50:38;7.85;;;3.47;;
10957;SDS011;5531;42.570;23.676;2023-07-20T04:53:11;8.07;;;3.00;;
10957;SDS011;5531;42.570;23.676;2023-07-20T04:55:40;7.78;;;3.35;;
10957;SDS011;5531;42.570;23.676;2023-07-20T04:58:15;9.57;;;3.33;;
10957;SDS011;5531;42.570;23.676;2023-07-20T05:00:45;4.90;;;2.78;;
10957;SDS011;5531;42.570;23.676;2023-07-20T05:03:14;6.75;;;3.00;;
10957;SDS011;5531;42.570;23.676;2023-07-20T05:05:43;6.78;;;3.38;;
10957;SDS011;5531;42.570;23.676;2023-07-20T05:08:15;6.50;;;3.33;;
10957;SDS011;5531;42.570;23.676;2023-07-20T05:10:45;7.18;;;3.60;;
10957;SDS011;5531;42.570;23.676;2023-07-20T05:13:14;6.72;;;3.60;;
10957;SDS011;5531;42.570;23.676;2023-07-20T05:15:43;6.28;;;3.38;;
10957;SDS011;5531;42.570;23.676;2023-07-20T05:18:12;7.85;;;3.60;;
10957;SDS011;5531;42.570;23.676;2023-07-20T05:20:45;7.15;;;3.67;;
10957;SDS011;5531;42.570;23.676;2023-07-20T05:23:17;8.88;;;3.45;;
10957;SDS011;5531;42.570;23.676;2023-07-20T05:25:47;8.88;;;3.67;;
10957;SDS011;5531;42.570;23.676;2023-07-20T05:28:22;7.63;;;3.55;;
10957;SDS011;5531;42.570;23.676;2023-07-20T05:30:51;8.93;;;3.50;;
10957;SDS011;5531;42.570;23.676;2023-07-20T05:33:21;6.97;;;3.60;;
10957;SDS011;5531;42.570;23.676;2023-07-20T05:35:50;8.30;;;3.85;;
10957;SDS011;5531;42.570;23.676;2023-07-20T05:38:22;5.55;;;3.60;;
10957;SDS011;5531;42.570;23.676;2023-07-20T05:40:51;6.22;;;3.30;;
10957;SDS011;5531;42.570;23.676;2023-07-20T05:43:20;8.30;;;3.70;;
10957;SDS011;5531;42.570;23.676;2023-07-20T05:45:49;5.30;;;3.45;;
10957;SDS011;5531;42.570;23.676;2023-07-20T05:48:18;8.73;;;4.00;;
10957;SDS011;5531;42.570;23.676;2023-07-20T05:50:47;8.02;;;3.55;;
10957;SDS011;5531;42.570;23.676;2023-07-20T05:53:16;7.78;;;3.75;;
10957;SDS011;5531;42.570;23.676;2023-07-20T05:55:54;7.13;;;3.53;;
10957;SDS011;5531;42.570;23.676;2023-07-20T05:58:23;7.13;;;3.28;;
10957;SDS011;5531;42.570;23.676;2023-07-20T06:00:53;10.15;;;3.80;;
10957;SDS011;5531;42.570;23.676;2023-07-20T06:03:35;10.25;;;3.70;;
10957;SDS011;5531;42.570;23.676;2023-07-20T06:06:04;7.43;;;3.50;;
10957;SDS011;5531;42.570;23.676;2023-07-20T06:08:34;5.38;;;3.47;;
10957;SDS011;5531;42.570;23.676;2023-07-20T06:11:06;6.53;;;3.30;;
10957;SDS011;5531;42.570;23.676;2023-07-20T06:13:35;6.95;;;3.28;;
10957;SDS011;5531;42.570;23.676;2023-07-20T06:16:04;5.72;;;3.20;;
10957;SDS011;5531;42.570;23.676;2023-07-20T06:18:33;8.10;;;3.55;;
10957;SDS011;5531;42.570;23.676;2023-07-20T06:21:02;7.57;;;3.17;;
10957;SDS011;5531;42.570;23.676;2023-07-20T06:23:31;8.48;;;3.40;;
10957;SDS011;5531;42.570;23.676;2023-07-20T06:26:01;9.88;;;4.05;;
10957;SDS011;5531;42.570;23.676;2023-07-20T06:28:32;9.93;;;3.50;;
10957;SDS011;5531;42.570;23.676;2023-07-20T06:31:01;6.53;;;3.42;;
10957;SDS011;5531;42.570;23.676;2023-07-20T06:33:31;5.50;;;3.47;;
10957;SDS011;5531;42.570;23.676;2023-07-20T06:36:00;5.68;;;3.60;;
10957;SDS011;5531;42.570;23.676;2023-07-20T06:38:29;5.13;;;3.65;;
10957;SDS011;5531;42.570;23.676;2023-07-20T06:40:58;6.05;;;3.83;;
10957;SDS011;5531;42.570;23.676;2023-07-20T06:43:27;7.95;;;3.70;;
10957;SDS011;5531;42.570;23.676;2023-07-20T06:45:59;8.10;;;3.78;;
10957;SDS011;5531;42.570;23.676;2023-07-20T06:48:28;7.70;;;3.92;;
10957;SDS011;5531;42.570;23.676;2023-07-20T06:50:57;10.30;;;3.92;;
10957;SDS011;5531;42.570;23.676;2023-07-20T06:53:26;7.72;;;4.10;;
10957;SDS011;5531;42.570;23.676;2023-07-20T06:55:55;7.45;;;3.88;;
10957;SDS011;5531;42.570;23.676;2023-07-20T06:58:25;7.85;;;3.75;;
10957;SDS011;5531;42.570;23.676;2023-07-20T07:00:54;10.07;;;3.80;;
10957;SDS011;5531;42.570;23.676;2023-07-20T07:03:25;7.28;;;3.95;;
10957;SDS011;5531;42.570;23.676;2023-07-20T07:05:55;6.30;;;3.92;;
10957;SDS011;5531;42.570;23.676;2023-07-20T07:08:24;6.93;;;4.07;;
10957;SDS011;5531;42.570;23.676;2023-07-20T07:10:53;10.57;;;4.28;;
10957;SDS011;5531;42.570;23.676;2023-07-20T07:13:23;7.43;;;4.03;;
10957;SDS011;5531;42.570;23.676;2023-07-20T07:15:52;7.22;;;4.25;;
10957;SDS011;5531;42.570;23.676;2023-07-20T07:18:21;8.38;;;3.70;;
10957;SDS011;5531;42.570;23.676;2023-07-20T07:20:54;7.00;;;4.03;;
10957;SDS011;5531;42.570;23.676;2023-07-20T07:23:23;9.05;;;4.20;;
10957;SDS011;5531;42.570;23.676;2023-07-20T07:25:52;8.88;;;3.90;;
10957;SDS011;5531;42.570;23.676;2023-07-20T07:28:21;9.70;;;3.58;;
10957;SDS011;5531;42.570;23.676;2023-07-20T07:30:50;6.93;;;4.00;;
10957;SDS011;5531;42.570;23.676;2023-07-20T07:33:19;9.70;;;4.15;;
10957;SDS011;5531;42.570;23.676;2023-07-20T07:35:48;7.38;;;3.90;;
10957;SDS011;5531;42.570;23.676;2023-07-20T07:38:20;7.90;;;4.07;;
10957;SDS011;5531;42.570;23.676;2023-07-20T07:40:49;8.32;;;3.80;;
10957;SDS011;5531;42.570;23.676;2023-07-20T07:43:18;8.10;;;3.83;;
10957;SDS011;5531;42.570;23.676;2023-07-20T07:45:47;5.57;;;3.70;;
10957;SDS011;5531;42.570;23.676;2023-07-20T07:48:17;9.65;;;4.03;;
10957;SDS011;5531;42.570;23.676;2023-07-20T07:50:46;8.43;;;4.57;;
10957;SDS011;5531;42.570;23.676;2023-07-20T07:53:16;10.25;;;4.30;;
10957;SDS011;5531;42.570;23.676;2023-07-20T07:55:48;7.70;;;3.92;;
10957;SDS011;5531;42.570;23.676;2023-07-20T07:58:17;9.25;;;3.88;;
10957;SDS011;5531;42.570;23.676;2023-07-20T08:00:46;8.57;;;4.32;;
10957;SDS011;5531;42.570;23.676;2023-07-20T08:03:15;7.05;;;3.97;;
10957;SDS011;5531;42.570;23.676;2023-07-20T08:05:44;10.82;;;4.50;;
10957;SDS011;5531;42.570;23.676;2023-07-20T08:08:13;8.30;;;3.92;;
10957;SDS011;5531;42.570;23.676;2023-07-20T08:10:42;8.50;;;4.00;;
10957;SDS011;5531;42.570;23.676;2023-07-20T08:13:14;8.27;;;3.70;;
10957;SDS011;5531;42.570;23.676;2023-07-20T08:15:48;11.10;;;3.80;;
10957;SDS011;5531;42.570;23.676;2023-07-20T08:18:18;6.05;;;3.42;;
10957;SDS011;5531;42.570;23.676;2023-07-20T08:20:47;11.15;;;3.63;;
10957;SDS011;5531;42.570;23.676;2023-07-20T08:23:17;8.73;;;3.72;;
10957;SDS011;5531;42.570;23.676;2023-07-20T08:25:46;6.75;;;3.47;;
10957;SDS011;5531;42.570;23.676;2023-07-20T08:28:18;6.88;;;3.50;;
10957;SDS011;5531;42.570;23.676;2023-07-20T08:30:48;9.18;;;3.67;;
10957;SDS011;5531;42.570;23.676;2023-07-20T08:33:18;6.75;;;3.67;;
10957;SDS011;5531;42.570;23.676;2023-07-20T08:35:48;10.88;;;3.60;;
10957;SDS011;5531;42.570;23.676;2023-07-20T08:38:18;7.50;;;3.80;;
10957;SDS011;5531;42.570;23.676;2023-07-20T08:40:47;7.57;;;3.55;;
10957;SDS011;5531;42.570;23.676;2023-07-20T08:43:19;7.80;;;3.40;;
10957;SDS011;5531;42.570;23.676;2023-07-20T08:45:49;6.82;;;3.45;;
10957;SDS011;5531;42.570;23.676;2023-07-20T08:48:20;8.48;;;3.83;;
10957;SDS011;5531;42.570;23.676;2023-07-20T08:50:50;6.82;;;3.60;;
10957;SDS011;5531;42.570;23.676;2023-07-20T08:53:21;9.65;;;3.90;;
10957;SDS011;5531;42.570;23.676;2023-07-20T08:55:50;7.95;;;3.88;;
10957;SDS011;5531;42.570;23.676;2023-07-20T08:58:23;7.03;;;3.83;;
10957;SDS011;5531;42.570;23.676;2023-07-20T09:00:54;8.38;;;4.00;;
10957;SDS011;5531;42.570;23.676;2023-07-20T09:03:24;9.30;;;4.72;;
10957;SDS011;5531;42.570;23.676;2023-07-20T09:05:53;8.15;;;3.72;;
10957;SDS011;5531;42.570;23.676;2023-07-20T09:08:23;8.70;;;3.83;;
10957;SDS011;5531;42.570;23.676;2023-07-20T09:10:52;9.70;;;3.88;;
10957;SDS011;5531;42.570;23.676;2023-07-20T09:13:24;10.35;;;4.28;;
10957;SDS011;5531;42.570;23.676;2023-07-20T09:15:53;12.88;;;4.30;;
10957;SDS011;5531;42.570;23.676;2023-07-20T09:18:23;10.48;;;4.68;;
10957;SDS011;5531;42.570;23.676;2023-07-20T09:20:53;8.13;;;3.75;;
10957;SDS011;5531;42.570;23.676;2023-07-20T09:23:29;9.70;;;4.35;;
10957;SDS011;5531;42.570;23.676;2023-07-20T09:26:00;8.20;;;3.90;;
10957;SDS011;5531;42.570;23.676;2023-07-20T09:28:32;10.85;;;4.18;;
10957;SDS011;5531;42.570;23.676;2023-07-20T09:31:15;8.25;;;3.78;;
10957;SDS011;5531;42.570;23.676;2023-07-20T09:33:45;10.00;;;4.07;;
10957;SDS011;5531;42.570;23.676;2023-07-20T09:36:15;11.60;;;4.53;;
10957;SDS011;5531;42.570;23.676;2023-07-20T09:38:44;11.80;;;4.13;;
10957;SDS011;5531;42.570;23.676;2023-07-20T09:41:14;11.43;;;4.35;;
10957;SDS011;5531;42.570;23.676;2023-07-20T09:43:46;11.35;;;4.30;;
10957;SDS011;5531;42.570;23.676;2023-07-20T09:46:16;7.93;;;3.92;;
10957;SDS011;5531;42.570;23.676;2023-07-20T09:48:51;13.13;;;4.13;;
10957;SDS011;5531;42.570;23.676;2023-07-20T09:51:21;8.65;;;3.75;;
10957;SDS011;5531;42.570;23.676;2023-07-20T09:53:52;7.78;;;3.80;;
10957;SDS011;5531;42.570;23.676;2023-07-20T09:56:22;5.68;;;3.22;;
10957;SDS011;5531;42.570;23.676;2023-07-20T09:58:56;9.30;;;3.55;;
10957;SDS011;5531;42.570;23.676;2023-07-20T10:01:25;7.93;;;3.20;;
10957;SDS011;5531;42.570;23.676;2023-07-20T10:03:58;7.65;;;3.05;;
10957;SDS011;5531;42.570;23.676;2023-07-20T10:06:28;7.55;;;3.20;;
10957;SDS011;5531;42.570;23.676;2023-07-20T10:09:01;7.35;;;2.80;;
10957;SDS011;5531;42.570;23.676;2023-07-20T10:11:35;7.53;;;3.03;;
10957;SDS011;5531;42.570;23.676;2023-07-20T10:14:07;7.63;;;2.75;;
10957;SDS011;5531;42.570;23.676;2023-07-20T10:16:39;8.63;;;2.70;;
10957;SDS011;5531;42.570;23.676;2023-07-20T10:19:15;7.45;;;3.03;;
10957;SDS011;5531;42.570;23.676;2023-07-20T10:21:55;5.53;;;2.90;;
10957;SDS011;5531;42.570;23.676;2023-07-20T10:24:28;6.35;;;3.38;;
10957;SDS011;5531;42.570;23.676;2023-07-20T10:26:57;9.60;;;3.20;;
10957;SDS011;5531;42.570;23.676;2023-07-20T10:29:29;7.65;;;2.92;;
10957;SDS011;5531;42.570;23.676;2023-07-20T10:31:59;8.55;;;3.30;;
10957;SDS011;5531;42.570;23.676;2023-07-20T10:34:29;9.52;;;3.08;;
10957;SDS011;5531;42.570;23.676;2023-07-20T10:36:58;6.78;;;3.20;;
10957;SDS011;5531;42.570;23.676;2023-07-20T10:39:28;7.38;;;3.10;;
10957;SDS011;5531;42.570;23.676;2023-07-20T10:42:00;8.52;;;3.20;;
10957;SDS011;5531;42.570;23.676;2023-07-20T10:44:33;6.75;;;3.20;;
10957;SDS011;5531;42.570;23.676;2023-07-20T10:47:02;7.88;;;2.88;;
10957;SDS011;5531;42.570;23.676;2023-07-20T10:49:57;7.07;;;2.75;;
10957;SDS011;5531;42.570;23.676;2023-07-20T10:52:36;7.72;;;3.03;;
10957;SDS011;5531;42.570;23.676;2023-07-20T10:55:10;5.70;;;2.92;;
10957;SDS011;5531;42.570;23.676;2023-07-20T10:57:40;6.70;;;2.80;;
10957;SDS011;5531;42.570;23.676;2023-07-20T11:00:12;8.50;;;2.88;;
10957;SDS011;5531;42.570;23.676;2023-07-20T11:02:45;5.38;;;2.60;;
10957;SDS011;5531;42.570;23.676;2023-07-20T11:05:33;7.78;;;3.00;;
10957;SDS011;5531;42.570;23.676;2023-07-20T11:08:05;8.35;;;2.70;;
10957;SDS011;5531;42.570;23.676;2023-07-20T11:10:37;5.63;;;2.80;;
10957;SDS011;5531;42.570;23.676;2023-07-20T11:13:22;7.90;;;3.05;;
10957;SDS011;5531;42.570;23.676;2023-07-20T11:16:04;5.38;;;2.92;;
10957;SDS011;5531;42.570;23.676;2023-07-20T11:18:33;7.15;;;2.75;;
10957;SDS011;5531;42.570;23.676;2023-07-20T11:21:06;6.18;;;2.70;;
10957;SDS011;5531;42.570;23.676;2023-07-20T11:23:38;7.63;;;3.05;;
10957;SDS011;5531;42.570;23.676;2023-07-20T11:26:08;6.22;;;2.67;;
10957;SDS011;5531;42.570;23.676;2023-07-20T11:28:37;9.18;;;2.80;;
10957;SDS011;5531;42.570;23.676;2023-07-20T11:31:09;7.20;;;3.00;;
10957;SDS011;5531;42.570;23.676;2023-07-20T11:33:42;8.85;;;2.80;;
10957;SDS011;5531;42.570;23.676;2023-07-20T11:36:11;7.25;;;3.00;;
10957;SDS011;5531;42.570;23.676;2023-07-20T11:38:41;10.40;;;2.95;;
10957;SDS011;5531;42.570;23.676;2023-07-20T11:41:11;5.40;;;2.80;;
10957;SDS011;5531;42.570;23.676;2023-07-20T11:43:41;6.05;;;2.83;;
10957;SDS011;5531;42.570;23.676;2023-07-20T11:46:13;7.70;;;3.00;;
10957;SDS011;5531;42.570;23.676;2023-07-20T11:48:42;7.22;;;3.05;;
10957;SDS011;5531;42.570;23.676;2023-07-20T11:51:13;8.82;;;3.08;;
10957;SDS011;5531;42.570;23.676;2023-07-20T11:53:43;8.35;;;3.10;;
10957;SDS011;5531;42.570;23.676;2023-07-20T11:56:14;7.63;;;2.92;;
10957;SDS011;5531;42.570;23.676;2023-07-20T11:58:43;5.60;;;2.90;;
10957;SDS011;5531;42.570;23.676;2023-07-20T12:01:16;4.93;;;2.92;;
10957;SDS011;5531;42.570;23.676;2023-07-20T12:03:46;7.05;;;2.95;;
10957;SDS011;5531;42.570;23.676;2023-07-20T12:06:17;8.48;;;3.13;;
10957;SDS011;5531;42.570;23.676;2023-07-20T12:08:46;9.10;;;3.90;;
10957;SDS011;5531;42.570;23.676;2023-07-20T12:11:29;8.02;;;3.38;;
10957;SDS011;5531;42.570;23.676;2023-07-20T12:13:59;6.90;;;3.65;;
10957;SDS011;5531;42.570;23.676;2023-07-20T12:16:31;8.52;;;3.90;;
10957;SDS011;5531;42.570;23.676;2023-07-20T12:19:01;7.60;;;3.35;;
10957;SDS011;5531;42.570;23.676;2023-07-20T12:21:30;9.80;;;3.60;;
10957;SDS011;5531;42.570;23.676;2023-07-20T12:24:00;7.40;;;3.72;;
10957;SDS011;5531;42.570;23.676;2023-07-20T12:26:29;6.53;;;3.78;;
10957;SDS011;5531;42.570;23.676;2023-07-20T12:28:59;6.22;;;3.78;;
10957;SDS011;5531;42.570;23.676;2023-07-20T12:31:33;6.93;;;4.50;;
10957;SDS011;5531;42.570;23.676;2023-07-20T12:34:05;7.30;;;4.15;;
10957;SDS011;5531;42.570;23.676;2023-07-20T12:36:34;8.02;;;4.32;;
10957;SDS011;5531;42.570;23.676;2023-07-20T12:39:04;6.32;;;4.10;;
10957;SDS011;5531;42.570;23.676;2023-07-20T12:41:33;7.75;;;4.25;;
10957;SDS011;5531;42.570;23.676;2023-07-20T12:44:02;7.82;;;4.72;;
10957;SDS011;5531;42.570;23.676;2023-07-20T12:46:33;11.07;;;4.65;;
10957;SDS011;5531;42.570;23.676;2023-07-20T12:49:04;7.40;;;4.60;;
10957;SDS011;5531;42.570;23.676;2023-07-20T12:51:33;8.55;;;4.53;;
10957;SDS011;5531;42.570;23.676;2023-07-20T12:54:02;8.65;;;4.18;;
10957;SDS011;5531;42.570;23.676;2023-07-20T12:56:31;13.65;;;4.47;;
10957;SDS011;5531;42.570;23.676;2023-07-20T12:59:00;10.57;;;4.60;;
10957;SDS011;5531;42.570;23.676;2023-07-20T13:01:33;8.38;;;4.32;;
10957;SDS011;5531;42.570;23.676;2023-07-20T13:04:03;7.75;;;4.25;;
10957;SDS011;5531;42.570;23.676;2023-07-20T13:06:34;12.63;;;4.60;;
10957;SDS011;5531;42.570;23.676;2023-07-20T13:09:03;6.57;;;4.00;;
10957;SDS011;5531;42.570;23.676;2023-07-20T13:11:32;6.55;;;3.75;;
10957;SDS011;5531;42.570;23.676;2023-07-20T13:14:01;6.05;;;3.17;;
10957;SDS011;5531;42.570;23.676;2023-07-20T13:16:33;7.13;;;3.50;;
10957;SDS011;5531;42.570;23.676;2023-07-20T13:19:02;6.88;;;3.20;;
10957;SDS011;5531;42.570;23.676;2023-07-20T13:21:31;7.13;;;2.85;;
10957;SDS011;5531;42.570;23.676;2023-07-20T13:24:00;8.20;;;3.38;;
10957;SDS011;5531;42.570;23.676;2023-07-20T13:26:29;7.57;;;3.40;;
10957;SDS011;5531;42.570;23.676;2023-07-20T13:28:58;5.03;;;2.92;;
10957;SDS011;5531;42.570;23.676;2023-07-20T13:31:28;6.25;;;3.00;;
10957;SDS011;5531;42.570;23.676;2023-07-20T13:34:00;6.00;;;3.55;;
10957;SDS011;5531;42.570;23.676;2023-07-20T13:36:29;11.13;;;3.80;;
10957;SDS011;5531;42.570;23.676;2023-07-20T13:38:58;4.40;;;3.08;;
10957;SDS011;5531;42.570;23.676;2023-07-20T13:41:29;7.85;;;3.15;;
10957;SDS011;5531;42.570;23.676;2023-07-20T13:43:58;5.32;;;3.20;;
10957;SDS011;5531;42.570;23.676;2023-07-20T13:46:27;6.68;;;3.20;;
10957;SDS011;5531;42.570;23.676;2023-07-20T13:48:56;6.65;;;2.80;;
10957;SDS011;5531;42.570;23.676;2023-07-20T13:51:28;8.63;;;3.15;;
10957;SDS011;5531;42.570;23.676;2023-07-20T13:53:57;8.07;;;2.97;;
10957;SDS011;5531;42.570;23.676;2023-07-20T13:56:27;6.40;;;2.90;;
10957;SDS011;5531;42.570;23.676;2023-07-20T13:58:56;6.55;;;2.80;;
10957;SDS011;5531;42.570;23.676;2023-07-20T14:01:26;10.88;;;3.00;;
10957;SDS011;5531;42.570;23.676;2023-07-20T14:04:01;5.25;;;3.00;;
10957;SDS011;5531;42.570;23.676;2023-07-20T14:06:31;6.28;;;2.75;;
10957;SDS011;5531;42.570;23.676;2023-07-20T14:09:01;7.50;;;3.15;;
10957;SDS011;5531;42.570;23.676;2023-07-20T14:11:30;7.53;;;3.10;;
10957;SDS011;5531;42.570;23.676;2023-07-20T14:13:59;6.13;;;2.80;;
10957;SDS011;5531;42.570;23.676;2023-07-20T14:16:28;8.30;;;3.08;;
10957;SDS011;5531;42.570;23.676;2023-07-20T14:19:00;7.45;;;3.00;;
10957;SDS011;5531;42.570;23.676;2023-07-20T14:21:30;6.25;;;2.60;;
10957;SDS011;5531;42.570;23.676;2023-07-20T14:23:59;9.27;;;2.88;;
10957;SDS011;5531;42.570;23.676;2023-07-20T14:26:28;5.57;;;2.65;;
10957;SDS011;5531;42.570;23.676;2023-07-20T14:28:57;8.02;;;2.60;;
10957;SDS011;5531;42.570;23.676;2023-07-20T14:31:26;8.93;;;2.88;;
10957;SDS011;5531;42.570;23.676;2023-07-20T14:33:55;5.57;;;2.40;;
10957;SDS011;5531;42.570;23.676;2023-07-20T14:36:27;7.05;;;2.80;;
10957;SDS011;5531;42.570;23.676;2023-07-20T14:38:56;7.85;;;2.55;;
10957;SDS011;5531;42.570;23.676;2023-07-20T14:41:25;5.28;;;2.50;;
10957;SDS011;5531;42.570;23.676;2023-07-20T14:43:54;6.43;;;2.42;;
10957;SDS011;5531;42.570;23.676;2023-07-20T14:46:23;7.85;;;2.65;;
10957;SDS011;5531;42.570;23.676;2023-07-20T14:48:52;8.15;;;2.70;;
10957;SDS011;5531;42.570;23.676;2023-07-20T14:51:21;8.07;;;2.92;;
10957;SDS011;5531;42.570;23.676;2023-07-20T14:53:53;8.02;;;3.00;;
10957;SDS011;5531;42.570;23.676;2023-07-20T14:56:22;4.82;;;2.50;;
10957;SDS011;5531;42.570;23.676;2023-07-20T14:58:51;6.72;;;2.90;;
10957;SDS011;5531;42.570;23.676;2023-07-20T15:01:21;6.53;;;2.47;;
10957;SDS011;5531;42.570;23.676;2023-07-20T15:03:50;7.10;;;2.80;;
10957;SDS011;5531;42.570;23.676;2023-07-20T15:06:19;6.63;;;2.58;;